Time;durP1;ratioP1;P1;durP2;ratioP2;P2;SDS_P1;SDS_P2;PMS_P1;PMS_P2;Temp;Humidity;BMP_temperature;BMP_pressure;BME280_temperature;BME280_humidity;BME280_pressure;Samples;Min_cycle;Max_cycle;Signal;HPM_P1;HPM_P2
2021/11/20 00:12:05;;;;;;;34.75;30.98;;;22.30;56.80;;;;;;31541546;28;20060;-45
2021/11/20 00:27:16;;;;;;;39.75;30.95;;;22.30;57.00;;;;;;31602411;28;20044;-47
2021/11/20 00:42:18;;;;;;;36.22;27.38;;;22.20;57.20;;;;;;31543557;28;20049;-43
2021/11/20 00:57:21;;;;;;;31.67;27.73;;;22.30;56.70;;;;;;31565408;28;20108;-43
2021/11/20 01:12:26;;;;;;;28.17;24.88;;;22.80;57.60;;;;;;31584199;28;20045;-41
2021/11/20 01:27:29;;;;;;;28.30;23.00;;;22.80;58.40;;;;;;31577267;28;20065;-44
2021/11/20 01:42:31;;;;;;;20.85;17.30;;;22.70;58.00;;;;;;31556876;28;20040;-44
2021/11/20 01:57:50;;;;;;;21.30;15.75;;;22.50;56.30;;;;;;31552166;28;20064;-42
2021/11/20 02:13:24;;;;;;;19.40;15.27;;;22.40;56.60;;;;;;31518289;28;20065;-47
2021/11/20 02:28:27;;;;;;;17.30;14.80;;;22.30;57.00;;;;;;31528600;28;20068;-42
2021/11/20 02:43:35;;;;;;;15.70;13.98;;;22.20;57.20;;;;;;31559943;28;20045;-42
2021/11/20 02:58:38;;;;;;;18.27;15.57;;;22.50;58.20;;;;;;31560702;28;20103;-48
2021/11/20 03:13:47;;;;;;;15.20;13.60;;;22.60;57.50;;;;;;31554076;28;20064;-41
2021/11/20 03:28:49;;;;;;;15.68;12.43;;;22.60;57.40;;;;;;31602805;28;20044;-46
2021/11/20 03:43:51;;;;;;;16.73;12.60;;;22.50;57.50;;;;;;31634130;28;20052;-44
2021/11/20 03:58:53;;;;;;;14.23;11.60;;;22.40;57.50;;;;;;31630273;28;20083;-47
2021/11/20 04:13:55;;;;;;;15.35;11.10;;;22.40;57.70;;;;;;31564294;28;20049;-44
2021/11/20 04:28:57;;;;;;;14.20;10.98;;;22.30;57.80;;;;;;31501792;28;20072;-42
2021/11/20 04:44:00;;;;;;;10.90;9.65;;;22.20;57.50;;;;;;31573723;28;20049;-42
2021/11/20 04:59:02;;;;;;;13.75;10.75;;;22.40;57.90;;;;;;31506603;28;20112;-43
2021/11/20 05:14:04;;;;;;;11.93;9.77;;;22.60;57.70;;;;;;31589667;28;20048;-41
2021/11/20 05:29:12;;;;;;;10.65;9.55;;;22.60;57.60;;;;;;31589933;28;20037;-44
2021/11/20 05:44:14;;;;;;;9.80;8.80;;;22.60;57.60;;;;;;31560799;28;20059;-41
2021/11/20 05:59:16;;;;;;;9.07;8.18;;;22.50;57.70;;;;;;31587751;28;20060;-45
2021/11/20 06:14:18;;;;;;;12.63;8.88;;;22.40;57.90;;;;;;31619204;28;20037;-47
2021/11/20 06:29:21;;;;;;;10.38;9.00;;;22.30;58.00;;;;;;31638654;28;20045;-43
2021/11/20 06:44:23;;;;;;;13.40;8.55;;;22.30;59.00;;;;;;31603296;28;20076;-43
2021/11/20 07:14:28;;;;;;;10.45;7.78;;;22.70;58.90;;;;;;31618062;28;20072;-52
2021/11/20 07:29:30;;;;;;;10.98;7.20;;;22.70;58.80;;;;;;31517664;28;20048;-51
2021/11/20 07:44:32;;;;;;;135.57;104.40;;;22.60;58.50;;;;;;31517893;28;20045;-43
2021/11/20 07:59:34;;;;;;;40.45;27.75;;;22.40;52.70;;;;;;31510111;28;20079;-46
2021/11/20 08:14:36;;;;;;;25.40;17.67;;;21.50;48.00;;;;;;31535464;28;20072;-54
2021/11/20 08:29:38;;;;;;;14.25;10.30;;;21.60;48.80;;;;;;31516578;28;20130;-52
2021/11/20 08:44:40;;;;;;;9.23;7.43;;;21.90;47.30;;;;;;31518917;28;20044;-49
2021/11/20 08:59:48;;;;;;;9.77;6.20;;;21.80;45.70;;;;;;31600706;28;20493;-50
2021/11/20 09:15:08;;;;;;;8.23;5.93;;;21.80;47.00;;;;;;31600402;28;20397;-47
2021/11/20 09:30:16;;;;;;;5.80;4.50;;;22.00;49.00;;;;;;31621011;28;20072;-38
2021/11/20 09:45:24;;;;;;;6.30;4.93;;;21.90;49.80;;;;;;31524304;28;20045;-38
2021/11/20 10:00:57;;;;;;;24.00;19.83;;;21.70;51.10;;;;;;31496498;28;20080;-41
2021/11/20 10:16:21;;;;;;;30.77;25.00;;;21.80;51.20;;;;;;31512869;28;20045;-43
2021/11/20 10:31:32;;;;;;;27.55;23.08;;;21.90;51.90;;;;;;31525989;28;20041;-38
2021/11/20 10:46:51;;;;;;;31.10;26.17;;;21.90;52.90;;;;;;31511863;28;20071;-42
2021/11/20 11:02:09;;;;;;;32.15;26.67;;;22.00;52.90;;;;;;31394910;28;20260;-44
2021/11/20 11:17:21;;;;;;;28.20;22.70;;;22.50;52.10;;;;;;31418953;28;20048;-46
2021/11/20 11:32:25;;;;;;;24.33;20.73;;;22.60;51.50;;;;;;31503389;28;20059;-44
2021/11/20 11:47:49;;;;;;;21.02;18.65;;;22.50;52.10;;;;;;31495060;28;20073;-38
2021/11/20 12:02:54;;;;;;;20.10;16.48;;;22.50;52.10;;;;;;31498131;28;20068;-40
2021/11/20 12:18:15;;;;;;;18.05;15.43;;;22.30;52.40;;;;;;31495756;28;20072;-40
2021/11/20 12:33:32;;;;;;;17.08;14.75;;;22.30;52.30;;;;;;31416061;28;20461;-39
2021/11/20 12:49:00;;;;;;;21.20;12.95;;;22.30;52.10;;;;;;31448177;28;20083;-37
2021/11/20 13:04:05;;;;;;;20.33;13.90;;;22.20;52.30;;;;;;31536909;28;20094;-37
2021/11/20 13:19:07;;;;;;;19.13;15.43;;;22.20;52.90;;;;;;31617789;28;20052;-43
2021/11/20 13:34:10;;;;;;;49.92;32.58;;;22.00;53.40;;;;;;31621013;28;20040;-43
2021/11/20 13:49:12;;;;;;;39.70;30.15;;;21.80;53.80;;;;;;31642570;28;20068;-41
2021/11/20 14:04:15;;;;;;;30.48;24.52;;;21.80;53.80;;;;;;31621411;28;20567;-42
2021/11/20 14:19:29;;;;;;;27.13;20.38;;;21.70;53.50;;;;;;31639378;28;20052;-36
2021/11/20 14:34:38;;;;;;;20.23;15.45;;;21.60;53.40;;;;;;31637234;28;20051;-47
2021/11/20 14:49:43;;;;;;;15.00;12.70;;;21.50;53.30;;;;;;31633294;28;20105;-47
2021/11/20 15:04:45;;;;;;;17.33;13.35;;;21.50;53.10;;;;;;31630197;28;20104;-48
2021/11/20 15:19:47;;;;;;;18.15;12.23;;;21.50;51.90;;;;;;31559561;28;20041;-47
2021/11/20 15:34:49;;;;;;;23.15;17.70;;;22.30;50.50;;;;;;31575778;28;20044;-44
2021/11/20 15:49:51;;;;;;;28.30;15.57;;;22.40;50.50;;;;;;31499986;28;20099;-47
2021/11/20 16:04:53;;;;;;;113.90;87.35;;;22.30;51.60;;;;;;31481493;28;20127;-42
2021/11/20 16:19:56;;;;;;;46.17;33.03;;;21.60;49.30;;;;;;31493321;28;20075;-39
2021/11/20 16:34:58;;;;;;;34.28;26.38;;;21.50;50.10;;;;;;31568585;28;20075;-42
2021/11/20 16:50:00;;;;;;;25.23;18.77;;;21.90;48.50;;;;;;31244111;28;9999904;-39
2021/11/20 17:05:03;;;;;;;33.28;24.65;;;21.70;46.70;;;;;;31484613;28;20049;-39
2021/11/20 17:20:08;;;;;;;21.05;16.00;;;21.50;44.20;;;;;;31505626;28;20074;-48
2021/11/20 17:35:12;;;;;;;17.42;12.93;;;21.90;46.00;;;;;;31490779;28;20100;-44
2021/11/20 17:50:14;;;;;;;14.70;10.15;;;21.70;47.60;;;;;;31516607;28;20072;-45
2021/11/20 18:05:16;;;;;;;14.88;9.50;;;21.60;46.40;;;;;;31497258;28;20044;-42
2021/11/20 18:20:19;;;;;;;11.93;8.18;;;21.60;47.20;;;;;;31507460;28;20047;-41
2021/11/20 18:35:22;;;;;;;11.82;7.22;;;21.50;47.30;;;;;;31509223;28;20056;-41
2021/11/20 18:50:25;;;;;;;14.93;7.88;;;21.90;46.40;;;;;;31508292;28;20049;-47
2021/11/20 19:05:27;;;;;;;12.98;8.15;;;22.40;46.30;;;;;;31506239;28;20093;-42
2021/11/20 19:20:29;;;;;;;12.38;7.68;;;22.50;46.20;;;;;;31506656;28;20052;-37
2021/11/20 19:35:32;;;;;;;13.80;6.88;;;22.60;46.30;;;;;;31600195;28;20041;-49
2021/11/20 19:50:34;;;;;;;22.83;6.73;;;22.50;47.80;;;;;;31153001;28;10001538;-48
2021/11/20 20:05:36;;;;;;;13.60;7.95;;;22.50;48.60;;;;;;31517231;28;20045;-44
2021/11/20 20:20:40;;;;;;;10.07;6.57;;;22.50;50.40;;;;;;31537655;28;20051;-46
2021/11/20 20:35:45;;;;;;;11.80;6.30;;;22.50;50.80;;;;;;31513526;28;20056;-50
2021/11/20 20:50:47;;;;;;;20.83;6.10;;;22.50;51.50;;;;;;31484671;28;20073;-42
2021/11/20 21:05:49;;;;;;;15.73;5.38;;;22.40;53.20;;;;;;31492009;28;20048;-39
2021/11/20 21:36:13;;;;;;;14.95;8.00;;;22.70;46.90;;;;;;31532638;28;20097;-40
2021/11/20 21:51:15;;;;;;;8.82;6.22;;;22.90;44.90;;;;;;31551750;28;20068;-42
2021/11/20 22:06:17;;;;;;;8.45;6.43;;;23.00;45.50;;;;;;31576319;28;20096;-43
2021/11/20 22:21:21;;;;;;;8.63;5.90;;;22.90;46.50;;;;;;31628842;28;20049;-42
2021/11/20 22:36:23;;;;;;;9.55;7.45;;;22.80;46.30;;;;;;31629277;28;20040;-36
2021/11/20 22:51:25;;;;;;;8.57;6.38;;;22.60;47.90;;;;;;31513552;28;20053;-37
2021/11/20 23:06:27;;;;;;;8.45;5.40;;;22.60;44.40;;;;;;31509289;28;20069;-46
2021/11/20 23:21:31;;;;;;;8.13;5.70;;;23.10;43.30;;;;;;31501443;28;20055;-37
2021/11/20 23:36:33;;;;;;;9.95;4.90;;;23.10;44.10;;;;;;31529215;28;20493;-38
2021/11/20 23:51:35;;;;;;;10.18;4.97;;;22.90;44.00;;;;;;31616853;28;20045;-46
